createdAt,value
2023-09-05T00:00:14.119Z,34.60
2023-09-05T00:02:46.244Z,35.47
2023-09-05T00:05:13.331Z,37.78
2023-09-05T00:07:41.511Z,38.03
2023-09-05T00:10:12.120Z,35.78
2023-09-05T00:12:42.670Z,40.10
2023-09-05T00:15:14.240Z,36.50
2023-09-05T00:17:41.701Z,36.08
2023-09-05T00:20:09.197Z,38.10
2023-09-05T00:22:36.210Z,37.13
2023-09-05T00:25:04.148Z,37.45
2023-09-05T00:27:31.023Z,37.70
2023-09-05T00:29:58.684Z,38.17
2023-09-05T00:32:25.505Z,38.17
2023-09-05T00:34:52.344Z,38.28
2023-09-05T00:37:23.842Z,38.35
2023-09-05T00:39:51.070Z,38.50
2023-09-05T00:42:18.639Z,39.60
2023-09-05T00:44:47.910Z,39.75
2023-09-05T00:47:14.759Z,38.15
2023-09-05T00:49:48.196Z,37.53
2023-09-05T00:52:15.279Z,39.22
2023-09-05T00:54:42.511Z,40.58
2023-09-05T00:57:15.784Z,37.03
2023-09-05T00:59:43.611Z,29.02
2023-09-05T01:02:16.764Z,39.08
2023-09-05T01:04:44.607Z,39.20
2023-09-05T01:07:19.534Z,39.80
2023-09-05T01:09:55.034Z,40.25
2023-09-05T01:12:21.875Z,40.97
2023-09-05T01:14:48.713Z,39.58
2023-09-05T01:17:15.810Z,39.38
2023-09-05T01:19:42.977Z,38.85
2023-09-05T01:22:18.841Z,39.22
2023-09-05T01:24:48.801Z,36.80
2023-09-05T01:27:18.914Z,39.03
2023-09-05T01:29:45.925Z,36.63
2023-09-05T01:32:13.085Z,38.47
2023-09-05T01:34:40.224Z,38.92
2023-09-05T01:37:07.054Z,37.95
2023-09-05T01:39:34.069Z,38.85
2023-09-05T01:42:00.931Z,39.88
2023-09-05T01:44:27.794Z,39.40
2023-09-05T01:46:54.705Z,39.15
2023-09-05T01:49:21.634Z,38.38
2023-09-05T01:51:48.515Z,38.92
2023-09-05T01:54:15.365Z,40.03
2023-09-05T01:56:42.193Z,38.22
2023-09-05T01:59:09.245Z,41.55
2023-09-05T02:01:36.053Z,37.85
2023-09-05T02:04:02.913Z,39.33
2023-09-05T02:06:30.889Z,39.67
2023-09-05T02:08:57.623Z,38.90
2023-09-05T02:11:24.702Z,37.55
2023-09-05T02:13:51.489Z,35.80
2023-09-05T02:16:20.224Z,38.22
2023-09-05T02:18:53.366Z,37.28
2023-09-05T02:21:20.127Z,35.30
2023-09-05T02:23:46.921Z,36.85
2023-09-05T02:26:14.220Z,34.70
2023-09-05T02:28:41.062Z,35.92
2023-09-05T02:31:08.144Z,35.95
2023-09-05T02:33:38.338Z,36.42
2023-09-05T02:36:16.598Z,35.58
2023-09-05T02:38:44.014Z,34.67
2023-09-05T02:41:17.816Z,34.38
2023-09-05T02:43:48.860Z,32.25
2023-09-05T02:46:15.950Z,31.48
2023-09-05T02:48:43.069Z,32.95
2023-09-05T02:51:11.173Z,31.83
2023-09-05T02:53:38.473Z,31.95
2023-09-05T02:56:05.676Z,31.50
2023-09-05T02:58:33.512Z,35.05
2023-09-05T03:01:04.336Z,33.90
2023-09-05T03:03:32.160Z,33.50
2023-09-05T03:06:08.077Z,33.88
2023-09-05T03:08:37.339Z,33.88
2023-09-05T03:11:04.142Z,33.35
2023-09-05T03:13:31.020Z,33.92
2023-09-05T03:15:57.819Z,34.08
2023-09-05T03:18:26.338Z,33.55
2023-09-05T03:20:56.244Z,33.58
2023-09-05T03:23:24.116Z,33.53
2023-09-05T03:25:53.166Z,34.97
2023-09-05T03:28:20.744Z,34.05
2023-09-05T03:30:47.643Z,32.67
2023-09-05T03:33:14.456Z,33.58
2023-09-05T03:35:43.188Z,36.05
2023-09-05T03:38:10.456Z,36.08
2023-09-05T03:40:37.482Z,37.47
2023-09-05T03:43:04.381Z,35.55
2023-09-05T03:45:32.039Z,35.45
2023-09-05T03:48:02.084Z,33.03
2023-09-05T03:50:29.829Z,33.72
2023-09-05T03:52:56.830Z,32.50
2023-09-05T03:55:23.941Z,36.38
2023-09-05T03:57:50.945Z,35.85
2023-09-05T04:00:18.385Z,33.88
2023-09-05T04:02:45.351Z,35.88
2023-09-05T04:05:12.771Z,35.40
2023-09-05T04:07:41.840Z,35.65
2023-09-05T04:10:09.965Z,32.55
2023-09-05T04:12:38.347Z,33.45
2023-09-05T04:15:05.999Z,30.65
2023-09-05T04:17:32.855Z,32.25
2023-09-05T04:20:00.041Z,36.45
2023-09-05T04:22:29.463Z,34.08
2023-09-05T04:24:56.377Z,33.95
2023-09-05T04:27:25.190Z,32.63
2023-09-05T04:29:52.533Z,35.00
2023-09-05T04:32:30.120Z,31.55
2023-09-05T04:34:58.034Z,33.67
2023-09-05T04:37:25.032Z,34.00
2023-09-05T04:39:52.156Z,34.53
2023-09-05T04:42:18.900Z,35.13
2023-09-05T04:44:45.764Z,34.50
2023-09-05T04:47:25.485Z,38.10
2023-09-05T04:49:54.190Z,35.50
2023-09-05T04:52:21.811Z,34.20
2023-09-05T04:54:48.741Z,34.92
2023-09-05T04:57:15.852Z,35.75
2023-09-05T04:59:45.046Z,34.22
2023-09-05T05:02:12.064Z,35.90
2023-09-05T05:04:38.919Z,32.47
2023-09-05T05:07:05.646Z,32.83
2023-09-05T05:09:32.422Z,31.95
2023-09-05T05:12:00.411Z,32.65
2023-09-05T05:14:27.622Z,35.13
2023-09-05T05:16:55.077Z,34.47
2023-09-05T05:19:22.781Z,36.40
2023-09-05T05:21:50.202Z,35.53
2023-09-05T05:24:17.001Z,34.95
2023-09-05T05:26:44.272Z,34.88
2023-09-05T05:29:11.168Z,36.42
2023-09-05T05:31:38.927Z,39.33
2023-09-05T05:34:05.783Z,40.08
2023-09-05T05:36:32.816Z,37.08
2023-09-05T05:39:00.177Z,36.42
2023-09-05T05:41:28.983Z,36.13
2023-09-05T05:43:58.790Z,37.83
2023-09-05T05:46:25.697Z,36.97
2023-09-05T05:48:53.067Z,36.03
2023-09-05T05:51:20.105Z,36.58
2023-09-05T05:53:47.923Z,37.55
2023-09-05T05:56:14.792Z,37.83
2023-09-05T05:58:41.734Z,36.55
2023-09-05T06:01:09.127Z,37.70
2023-09-05T06:03:36.685Z,36.65
2023-09-05T06:06:04.595Z,37.55
2023-09-05T06:08:31.890Z,36.58
2023-09-05T06:10:59.045Z,35.40
2023-09-05T06:13:26.129Z,35.30
2023-09-05T06:15:53.597Z,35.05
2023-09-05T06:18:20.852Z,34.92
2023-09-05T06:20:47.635Z,35.08
2023-09-05T06:23:14.744Z,37.03
2023-09-05T06:25:41.735Z,35.55
2023-09-05T06:28:11.286Z,36.22
2023-09-05T06:30:38.079Z,33.55
2023-09-05T06:33:05.359Z,34.95
2023-09-05T06:35:32.126Z,37.15
2023-09-05T06:37:59.045Z,35.25
2023-09-05T06:40:26.232Z,38.13
2023-09-05T06:42:55.790Z,37.83
2023-09-05T06:45:22.751Z,35.67
2023-09-05T06:47:49.634Z,38.28
2023-09-05T06:50:16.576Z,36.15
2023-09-05T06:52:43.595Z,39.88
2023-09-05T06:55:11.063Z,40.10
2023-09-05T06:57:38.012Z,38.05
2023-09-05T07:00:05.256Z,36.45
2023-09-05T07:02:32.111Z,37.03
2023-09-05T07:04:58.948Z,38.53
2023-09-05T07:07:26.896Z,38.28
2023-09-05T07:09:54.623Z,38.42
2023-09-05T07:12:21.483Z,45.78
2023-09-05T07:14:49.995Z,40.10
2023-09-05T07:17:19.889Z,41.25
2023-09-05T07:19:47.928Z,43.35
2023-09-05T07:22:14.811Z,37.80
2023-09-05T07:24:41.723Z,36.47
2023-09-05T07:27:25.069Z,36.45
2023-09-05T07:29:54.994Z,36.90
2023-09-05T07:32:21.822Z,35.85
2023-09-05T07:34:50.104Z,32.70
2023-09-05T07:37:17.277Z,33.55
2023-09-05T07:39:46.328Z,33.85
2023-09-05T07:42:13.090Z,35.28
2023-09-05T07:44:40.896Z,34.47
2023-09-05T07:47:07.855Z,33.05
2023-09-05T07:49:38.556Z,31.35
2023-09-05T07:52:35.274Z,29.52
2023-09-05T07:55:02.254Z,29.20
2023-09-05T07:57:29.381Z,29.17
2023-09-05T07:59:56.380Z,28.13
2023-09-05T08:02:23.237Z,28.90
2023-09-05T08:04:53.167Z,29.70
2023-09-05T08:07:19.927Z,28.08
2023-09-05T08:09:49.718Z,26.58
2023-09-05T08:12:16.534Z,27.33
2023-09-05T08:14:43.448Z,27.58
2023-09-05T08:17:13.015Z,25.10
2023-09-05T08:19:41.319Z,27.27
2023-09-05T08:22:08.318Z,25.98
2023-09-05T08:24:36.743Z,26.55
2023-09-05T08:27:06.238Z,24.45
2023-09-05T08:29:33.615Z,24.77
2023-09-05T08:32:00.831Z,25.30
2023-09-05T08:34:27.713Z,24.50
2023-09-05T08:36:59.305Z,23.73
2023-09-05T08:39:26.032Z,22.52
2023-09-05T08:41:53.730Z,21.08
2023-09-05T08:44:26.287Z,19.55
2023-09-05T08:46:53.283Z,19.05
2023-09-05T08:49:20.222Z,19.30
2023-09-05T08:51:49.428Z,18.45
2023-09-05T08:54:21.824Z,17.75
2023-09-05T08:56:48.800Z,17.00
2023-09-05T08:59:21.114Z,16.98
2023-09-05T09:01:55.699Z,16.85
2023-09-05T09:04:25.045Z,16.63
2023-09-05T09:06:59.104Z,15.77
2023-09-05T09:09:34.971Z,16.80
2023-09-05T09:12:01.897Z,16.17
2023-09-05T09:14:28.848Z,15.13
2023-09-05T09:16:55.688Z,13.32
2023-09-05T09:19:22.607Z,14.48
2023-09-05T09:21:49.357Z,13.65
2023-09-05T09:24:19.879Z,13.18
2023-09-05T09:26:56.892Z,14.18
2023-09-05T09:29:56.557Z,13.32
2023-09-05T09:32:26.209Z,12.63
2023-09-05T09:34:53.050Z,11.52
2023-09-05T09:37:25.857Z,10.52
2023-09-05T09:40:14.238Z,10.57
2023-09-05T09:42:41.209Z,9.07
2023-09-05T09:45:11.246Z,8.68
2023-09-05T09:47:39.568Z,8.15
2023-09-05T09:50:09.180Z,8.02
2023-09-05T09:52:36.161Z,7.10
2023-09-05T09:55:04.335Z,6.20
2023-09-05T09:57:43.283Z,5.70
2023-09-05T10:00:12.962Z,5.78
2023-09-05T10:02:39.994Z,5.60
2023-09-05T10:05:10.057Z,5.47
2023-09-05T10:07:36.888Z,4.70
2023-09-05T10:10:06.905Z,4.10
2023-09-05T10:12:37.134Z,4.45
2023-09-05T10:15:18.100Z,3.72
2023-09-05T10:17:51.092Z,4.10
2023-09-05T10:20:23.980Z,5.28
2023-09-05T10:22:54.599Z,4.35
2023-09-05T10:25:21.553Z,3.05
2023-09-05T10:27:49.967Z,3.33
2023-09-05T10:33:38.806Z,3.15
2023-09-05T10:36:07.779Z,3.47
2023-09-05T10:38:40.158Z,3.33
2023-09-05T10:41:09.586Z,2.83
2023-09-05T10:43:36.500Z,2.95
2023-09-05T10:46:20.064Z,3.00
2023-09-05T10:48:47.031Z,3.10
2023-09-05T10:51:14.960Z,3.13
2023-09-05T10:54:26.301Z,2.55
2023-09-05T10:57:30.461Z,2.40
2023-09-05T10:59:57.778Z,3.75
2023-09-05T11:02:50.517Z,2.70
2023-09-05T11:05:20.771Z,2.78
2023-09-05T11:07:51.658Z,2.08
2023-09-05T11:10:31.348Z,2.08
2023-09-05T11:13:10.108Z,2.50
2023-09-05T11:15:40.765Z,2.30
2023-09-05T11:18:15.434Z,2.00
2023-09-05T11:20:49.787Z,2.15
2023-09-05T11:23:30.680Z,2.22
2023-09-05T11:26:01.758Z,1.95
2023-09-05T11:28:36.042Z,2.10
2023-09-05T11:31:09.827Z,1.63
2023-09-05T11:34:33.674Z,4.75
2023-09-05T11:40:23.279Z,2.13
2023-09-05T11:42:50.263Z,1.75
2023-09-05T11:45:29.988Z,1.70
2023-09-05T11:47:59.529Z,1.90
2023-09-05T11:50:26.643Z,1.70
2023-09-05T11:56:40.112Z,1.83
2023-09-05T11:59:07.070Z,1.92
2023-09-05T12:01:33.995Z,1.67
2023-09-05T12:04:20.560Z,1.73
2023-09-05T12:07:12.305Z,1.42
2023-09-05T12:09:39.371Z,1.58
2023-09-05T12:13:03.601Z,1.67
2023-09-05T12:15:31.627Z,1.55
2023-09-05T12:18:00.848Z,1.35
2023-09-05T12:20:28.025Z,1.70
2023-09-05T12:22:54.768Z,1.65
2023-09-05T12:25:42.670Z,1.60
2023-09-05T12:29:34.086Z,1.35
2023-09-05T12:32:00.924Z,1.70
2023-09-05T12:34:46.615Z,1.77
2023-09-05T12:37:19.018Z,1.55
2023-09-05T12:39:46.016Z,1.52
2023-09-05T12:42:15.851Z,1.73
2023-09-05T12:44:42.785Z,1.30
2023-09-05T12:47:24.594Z,1.30
2023-09-05T12:50:08.254Z,1.40
2023-09-05T12:52:38.046Z,1.30
2023-09-05T12:55:05.093Z,2.00
2023-09-05T12:57:31.993Z,1.13
2023-09-05T12:59:59.201Z,1.48
2023-09-05T13:02:26.051Z,1.25
2023-09-05T13:04:52.945Z,1.45
2023-09-05T13:07:20.012Z,1.23
2023-09-05T13:09:46.730Z,1.30
2023-09-05T13:12:13.762Z,1.23
2023-09-05T13:14:40.730Z,1.70
2023-09-05T13:17:07.465Z,1.50
2023-09-05T13:19:35.068Z,1.30
2023-09-05T13:22:01.873Z,1.38
2023-09-05T13:24:28.882Z,1.30
2023-09-05T13:26:57.142Z,1.30
2023-09-05T13:29:24.123Z,1.30
2023-09-05T13:31:51.036Z,1.40
2023-09-05T13:34:18.144Z,1.00
2023-09-05T13:36:50.519Z,1.23
2023-09-05T13:39:17.899Z,1.30
2023-09-05T13:41:44.820Z,1.40
2023-09-05T13:44:12.901Z,1.15
2023-09-05T13:46:39.862Z,1.30
2023-09-05T13:49:15.641Z,1.10
2023-09-05T13:51:44.694Z,1.23
2023-09-05T13:54:14.732Z,1.27
2023-09-05T13:56:48.136Z,1.20
2023-09-05T13:59:15.261Z,1.45
2023-09-05T14:01:42.513Z,1.50
2023-09-05T14:04:11.515Z,1.30
2023-09-05T14:06:43.998Z,1.30
2023-09-05T14:09:18.343Z,1.30
2023-09-05T14:11:54.068Z,1.13
2023-09-05T14:14:23.460Z,1.60
2023-09-05T14:16:55.029Z,1.33
2023-09-05T14:19:22.131Z,1.10
2023-09-05T14:21:49.224Z,1.10
2023-09-05T14:24:16.074Z,1.10
2023-09-05T14:26:42.901Z,1.17
2023-09-05T14:29:10.097Z,1.40
2023-09-05T14:31:40.129Z,1.10
2023-09-05T14:34:10.384Z,1.20
2023-09-05T14:36:42.627Z,1.20
2023-09-05T14:39:09.521Z,1.42
2023-09-05T14:41:36.763Z,1.13
2023-09-05T14:44:05.621Z,1.27
2023-09-05T14:46:35.647Z,1.40
2023-09-05T14:49:03.499Z,1.23
2023-09-05T14:51:30.865Z,1.92
2023-09-05T14:53:58.356Z,1.50
2023-09-05T14:56:25.270Z,1.33
2023-09-05T14:58:56.319Z,1.63
2023-09-05T15:01:26.304Z,1.35
2023-09-05T15:03:54.494Z,1.50
2023-09-05T15:06:21.495Z,1.45
2023-09-05T15:08:51.172Z,1.10
2023-09-05T15:11:19.869Z,1.30
2023-09-05T15:13:53.514Z,1.67
2023-09-05T15:16:25.765Z,1.58
2023-09-05T15:18:52.605Z,1.35
2023-09-05T15:21:19.464Z,1.48
2023-09-05T15:23:46.253Z,1.30
2023-09-05T15:26:13.135Z,1.42
2023-09-05T15:28:41.457Z,1.52
2023-09-05T15:31:09.903Z,1.70
2023-09-05T15:33:36.992Z,1.73
2023-09-05T15:36:03.902Z,1.80
2023-09-05T15:38:30.808Z,1.58
2023-09-05T15:40:57.669Z,1.50
2023-09-05T15:43:24.533Z,1.83
2023-09-05T15:45:51.999Z,1.45
2023-09-05T15:48:20.658Z,1.55
2023-09-05T15:50:48.881Z,1.50
2023-09-05T15:53:18.946Z,1.35
2023-09-05T15:55:45.872Z,1.40
2023-09-05T15:58:12.818Z,1.60
2023-09-05T16:00:39.872Z,1.45
2023-09-05T16:03:09.877Z,1.58
2023-09-05T16:05:36.853Z,1.40
2023-09-05T16:08:04.177Z,1.30
2023-09-05T16:10:30.965Z,1.40
2023-09-05T16:12:57.714Z,1.30
2023-09-05T16:15:24.566Z,1.45
2023-09-05T16:17:51.566Z,1.30
2023-09-05T16:20:18.670Z,1.63
2023-09-05T16:22:45.578Z,1.75
2023-09-05T16:25:12.512Z,1.50
2023-09-05T16:27:39.414Z,1.42
2023-09-05T16:30:09.775Z,1.60
2023-09-05T16:32:37.217Z,1.30
2023-09-05T16:35:04.681Z,1.67
2023-09-05T16:37:32.068Z,1.70
2023-09-05T16:40:00.017Z,1.67
2023-09-05T16:42:27.163Z,1.67
2023-09-05T16:44:54.118Z,1.45
2023-09-05T16:47:21.135Z,1.40
2023-09-05T16:49:48.041Z,1.50
2023-09-05T16:52:16.242Z,1.85
2023-09-05T16:54:44.102Z,1.65
2023-09-05T16:57:13.542Z,1.55
2023-09-05T16:59:41.868Z,1.38
2023-09-05T17:02:08.689Z,2.20
2023-09-05T17:07:24.310Z,1.50
2023-09-05T17:09:54.190Z,1.50
2023-09-05T17:12:21.062Z,1.73
2023-09-05T17:14:47.898Z,1.25
2023-09-05T17:17:14.827Z,1.60
2023-09-05T17:19:50.562Z,1.50
2023-09-05T17:22:20.558Z,1.75
2023-09-05T17:24:48.158Z,1.73
2023-09-05T17:27:15.189Z,1.50
2023-09-05T17:29:42.236Z,1.60
2023-09-05T17:32:10.108Z,1.73
2023-09-05T17:34:36.925Z,1.52
2023-09-05T17:37:32.130Z,1.83
2023-09-05T17:39:58.936Z,1.63
2023-09-05T17:42:26.209Z,1.73
2023-09-05T17:44:53.542Z,1.70
2023-09-05T17:47:20.366Z,1.40
2023-09-05T17:49:47.351Z,1.73
2023-09-05T17:52:14.279Z,1.42
2023-09-05T17:54:41.279Z,1.55
2023-09-05T17:57:08.031Z,1.52
2023-09-05T17:59:35.937Z,1.60
2023-09-05T18:04:49.945Z,1.92
2023-09-05T18:07:19.592Z,1.65
2023-09-05T18:20:56.313Z,1.80
2023-09-05T18:23:26.046Z,1.88
2023-09-05T18:26:16.454Z,1.90
2023-09-05T18:28:45.930Z,2.38
2023-09-05T18:31:18.812Z,1.55
2023-09-05T18:33:49.789Z,1.90
2023-09-05T18:36:26.411Z,1.40
2023-09-05T18:38:53.565Z,1.88
2023-09-05T18:41:20.506Z,1.80
2023-09-05T18:43:47.892Z,2.10
2023-09-05T18:46:15.871Z,2.05
2023-09-05T18:48:43.194Z,2.58
2023-09-05T18:51:14.969Z,2.15
2023-09-05T18:53:47.502Z,1.80
2023-09-05T18:56:14.419Z,2.20
2023-09-05T18:59:43.689Z,2.00
2023-09-05T20:36:46.989Z,5.25
2023-09-05T20:40:17.991Z,6.28
2023-09-05T20:46:09.310Z,5.90
2023-09-05T20:49:24.964Z,7.00
2023-09-05T20:52:16.832Z,6.07
2023-09-05T20:55:09.635Z,5.45
2023-09-05T20:57:49.054Z,6.53
2023-09-05T21:00:51.630Z,7.47
2023-09-05T21:04:22.810Z,16.48
2023-09-05T21:07:45.854Z,6.30
2023-09-05T21:20:35.003Z,8.73
2023-09-05T21:23:02.299Z,9.02
2023-09-05T21:25:31.631Z,8.93
2023-09-05T21:28:00.607Z,8.05
2023-09-05T21:30:34.503Z,9.23
2023-09-05T21:35:30.052Z,8.68
2023-09-05T21:38:03.710Z,7.40
2023-09-05T21:40:33.629Z,9.57
2023-09-05T21:43:00.509Z,8.15
2023-09-05T21:45:31.913Z,8.57
2023-09-05T21:53:20.391Z,8.68
2023-09-05T21:55:47.173Z,9.70
2023-09-05T21:58:13.884Z,8.45
2023-09-05T22:00:49.868Z,9.40
2023-09-05T22:03:22.748Z,9.63
2023-09-05T22:05:56.181Z,10.47
2023-09-05T22:08:25.880Z,11.10
2023-09-05T22:10:55.212Z,9.02
2023-09-05T22:13:27.374Z,10.02
2023-09-05T22:16:12.144Z,10.95
2023-09-05T22:18:42.799Z,10.00
2023-09-05T22:21:12.600Z,12.05
2023-09-05T22:23:42.438Z,12.65
2023-09-05T22:26:12.397Z,14.07
2023-09-05T22:28:41.322Z,13.82
2023-09-05T22:31:10.953Z,12.85
2023-09-05T22:33:40.625Z,11.75
2023-09-05T22:36:07.704Z,12.52
2023-09-05T22:38:34.730Z,13.40
2023-09-05T22:41:04.060Z,14.10
2023-09-05T22:43:33.151Z,16.35
2023-09-05T22:46:00.181Z,15.85
2023-09-05T22:48:27.267Z,13.40
2023-09-05T22:50:54.340Z,13.05
2023-09-05T22:53:21.210Z,12.48
2023-09-05T22:55:48.701Z,13.90
2023-09-05T22:58:16.461Z,12.02
2023-09-05T23:00:52.372Z,13.73
2023-09-05T23:03:21.112Z,13.63
2023-09-05T23:05:48.188Z,15.07
2023-09-05T23:08:14.968Z,16.45
2023-09-05T23:10:44.402Z,17.55
2023-09-05T23:13:11.208Z,14.15
2023-09-05T23:15:39.298Z,13.18
2023-09-05T23:18:06.462Z,15.48
2023-09-05T23:20:33.251Z,14.55
2023-09-05T23:23:00.128Z,15.15
2023-09-05T23:25:28.971Z,16.55
2023-09-05T23:27:55.906Z,13.73
2023-09-05T23:30:22.788Z,15.88
2023-09-05T23:32:50.993Z,17.65
2023-09-05T23:35:19.507Z,18.60
2023-09-05T23:37:46.322Z,18.00
2023-09-05T23:40:20.283Z,17.25
2023-09-05T23:42:47.199Z,15.52
2023-09-05T23:45:16.804Z,15.02
2023-09-05T23:47:48.426Z,14.80
2023-09-05T23:50:16.328Z,15.65
2023-09-05T23:52:43.164Z,16.15
2023-09-05T23:55:10.389Z,15.85
2023-09-05T23:57:37.242Z,19.45
